createdAt,value
2022-08-30T00:03:31.389Z,5.03
2022-08-30T00:08:32.223Z,3.90
2022-08-30T00:13:33.426Z,3.63
2022-08-30T00:18:35.983Z,4.63
2022-08-30T00:23:37.321Z,3.88
2022-08-30T00:28:38.007Z,4.68
2022-08-30T00:33:40.518Z,4.15
2022-08-30T00:38:41.140Z,4.47
2022-08-30T00:43:41.825Z,4.28
2022-08-30T00:48:48.785Z,4.82
2022-08-30T00:53:52.136Z,4.10
2022-08-30T00:58:56.373Z,4.18
2022-08-30T01:03:58.881Z,4.45
2022-08-30T01:08:59.982Z,4.07
2022-08-30T01:14:02.200Z,4.88
2022-08-30T01:19:05.303Z,3.78
2022-08-30T01:24:10.093Z,4.25
2022-08-30T01:29:14.402Z,4.20
2022-08-30T01:34:15.032Z,4.63
2022-08-30T01:39:18.671Z,4.07
2022-08-30T01:44:19.290Z,4.25
2022-08-30T01:49:27.402Z,4.03
2022-08-30T01:54:33.386Z,4.13
2022-08-30T01:59:40.791Z,4.05
2022-08-30T02:04:41.873Z,4.60
2022-08-30T02:09:44.174Z,5.47
2022-08-30T02:14:46.857Z,4.53
2022-08-30T02:19:47.623Z,4.70
2022-08-30T02:24:49.570Z,5.43
2022-08-30T02:29:50.230Z,4.82
2022-08-30T02:34:50.956Z,5.47
2022-08-30T02:39:53.367Z,5.07
2022-08-30T02:44:54.592Z,4.15
2022-08-30T02:49:55.201Z,4.93
2022-08-30T02:54:57.215Z,4.93
2022-08-30T02:59:58.632Z,4.93
2022-08-30T03:04:59.260Z,4.55
2022-08-30T03:10:01.221Z,4.53
2022-08-30T03:15:01.886Z,4.47
2022-08-30T03:20:02.953Z,4.88
2022-08-30T03:25:05.811Z,4.55
2022-08-30T03:30:08.401Z,4.45
2022-08-30T03:35:10.107Z,4.90
2022-08-30T03:40:14.486Z,4.40
2022-08-30T03:45:18.238Z,4.80
2022-08-30T03:50:18.964Z,4.68
2022-08-30T03:55:21.117Z,4.60
2022-08-30T04:00:22.265Z,4.45
2022-08-30T04:05:22.879Z,4.82
2022-08-30T04:10:25.021Z,4.45
2022-08-30T04:15:25.746Z,5.18
2022-08-30T04:20:27.358Z,5.40
2022-08-30T04:25:29.383Z,4.90
2022-08-30T04:30:30.022Z,5.05
2022-08-30T04:35:30.665Z,5.65
2022-08-30T04:40:32.738Z,5.32
2022-08-30T04:45:33.464Z,4.95
2022-08-30T04:50:34.819Z,4.82
2022-08-30T04:55:46.704Z,4.97
2022-08-30T05:00:47.387Z,5.45
2022-08-30T05:05:49.191Z,4.80
2022-08-30T05:10:53.109Z,4.10
2022-08-30T05:15:53.716Z,5.50
2022-08-30T05:21:05.110Z,5.22
2022-08-30T05:26:09.914Z,4.90
2022-08-30T05:31:16.121Z,5.10
2022-08-30T05:36:19.448Z,5.13
2022-08-30T05:41:22.863Z,5.43
2022-08-30T05:46:29.794Z,5.30
2022-08-30T05:51:32.046Z,4.78
2022-08-30T05:56:37.235Z,5.65
2022-08-30T06:01:40.599Z,4.65
2022-08-30T06:06:43.301Z,5.75
2022-08-30T06:11:46.657Z,5.68
2022-08-30T06:16:47.442Z,4.88
2022-08-30T06:21:50.575Z,5.28
2022-08-30T06:26:52.615Z,4.55
2022-08-30T06:31:53.339Z,5.85
2022-08-30T06:36:54.974Z,4.80
2022-08-30T06:41:56.902Z,5.13
2022-08-30T06:47:00.860Z,4.60
2022-08-30T06:52:01.659Z,5.07
2022-08-30T06:57:05.675Z,4.60
2022-08-30T07:02:07.329Z,4.43
2022-08-30T07:07:11.716Z,4.72
2022-08-30T07:12:15.487Z,4.40
2022-08-30T07:17:34.899Z,4.10
2022-08-30T07:22:35.803Z,4.15
2022-08-30T07:27:37.868Z,4.07
2022-08-30T07:32:39.009Z,4.43
2022-08-30T07:37:39.675Z,4.22
2022-08-30T07:42:41.939Z,4.70
2022-08-30T07:47:42.992Z,4.10
2022-08-30T07:52:43.714Z,4.22
2022-08-30T07:57:45.656Z,4.22
2022-08-30T08:02:46.321Z,3.90
2022-08-30T08:07:47.007Z,3.72
2022-08-30T08:12:49.662Z,3.50
2022-08-30T08:17:52.762Z,4.20
2022-08-30T08:22:53.696Z,4.38
2022-08-30T08:27:55.926Z,3.35
2022-08-30T08:32:57.892Z,4.45
2022-08-30T08:37:58.641Z,3.50
2022-08-30T08:43:06.107Z,4.35
2022-08-30T08:48:11.564Z,3.60
2022-08-30T08:53:51.462Z,3.88
2022-08-30T08:58:56.570Z,3.95
2022-08-30T09:03:59.159Z,3.33
2022-08-30T09:08:59.827Z,3.70
2022-08-30T09:14:01.830Z,3.58
2022-08-30T09:19:02.758Z,3.70
2022-08-30T09:24:08.659Z,3.25
2022-08-30T09:29:18.079Z,3.65
2022-08-30T09:34:20.827Z,2.90
2022-08-30T09:39:28.670Z,3.38
2022-08-30T09:44:38.772Z,3.90
2022-08-30T09:49:43.134Z,3.45
2022-08-30T09:54:58.811Z,3.67
2022-08-30T10:00:07.239Z,2.50
2022-08-30T10:05:16.446Z,2.80
2022-08-30T10:10:23.563Z,3.30
2022-08-30T10:15:30.898Z,3.00
2022-08-30T10:20:37.707Z,3.20
2022-08-30T10:25:44.816Z,2.85
2022-08-30T10:30:53.716Z,2.42
2022-08-30T10:35:57.659Z,2.30
2022-08-30T10:41:14.827Z,2.60
2022-08-30T10:46:20.778Z,2.45
2022-08-30T10:51:27.571Z,2.58
2022-08-30T10:56:30.399Z,2.55
2022-08-30T11:01:51.973Z,1.98
2022-08-30T11:07:09.840Z,1.92
2022-08-30T11:12:24.947Z,1.90
2022-08-30T11:17:32.660Z,2.30
2022-08-30T11:22:38.780Z,2.08
2022-08-30T11:27:41.995Z,2.00
2022-08-30T11:33:00.166Z,2.10
2022-08-30T11:38:11.905Z,2.13
2022-08-30T11:43:51.014Z,2.10
2022-08-30T11:48:56.869Z,2.33
2022-08-30T11:54:06.435Z,2.50
2022-08-30T11:59:18.987Z,2.40
2022-08-30T12:04:37.417Z,3.58
2022-08-30T12:10:05.819Z,2.30
2022-08-30T12:15:06.938Z,2.03
2022-08-30T12:20:21.289Z,2.13
2022-08-30T12:25:39.889Z,2.20
2022-08-30T12:30:41.383Z,2.67
2022-08-30T12:35:45.328Z,3.30
2022-08-30T12:40:54.589Z,3.00
2022-08-30T12:45:58.450Z,3.20
2022-08-30T12:51:10.937Z,3.50
2022-08-30T12:56:14.623Z,2.95
2022-08-30T13:01:19.840Z,3.15
2022-08-30T13:11:52.018Z,2.30
2022-08-30T13:17:06.935Z,3.53
2022-08-30T13:22:24.373Z,2.22
2022-08-30T13:27:30.161Z,2.65
2022-08-30T13:32:38.784Z,2.47
2022-08-30T13:37:49.997Z,2.45
2022-08-30T13:42:53.526Z,2.50
2022-08-30T13:47:55.872Z,2.65
2022-08-30T13:52:56.565Z,2.50
2022-08-30T13:57:58.571Z,2.33
2022-08-30T14:02:59.945Z,2.35
2022-08-30T14:08:01.171Z,2.40
2022-08-30T14:13:08.926Z,1.95
2022-08-30T14:18:13.500Z,2.03
2022-08-30T14:23:16.490Z,2.17
2022-08-30T14:28:18.702Z,2.38
2022-08-30T14:33:21.318Z,1.88
2022-08-30T14:38:21.945Z,2.25
2022-08-30T14:43:24.383Z,1.77
2022-08-30T14:48:25.303Z,1.88
2022-08-30T14:53:28.839Z,1.85
2022-08-30T14:58:31.006Z,2.30
2022-08-30T15:03:31.675Z,1.75
2022-08-30T15:08:32.400Z,1.95
2022-08-30T15:13:35.032Z,1.80
2022-08-30T15:18:35.823Z,1.98
2022-08-30T15:23:36.584Z,2.08
2022-08-30T15:28:39.567Z,2.20
2022-08-30T15:33:40.666Z,2.05
2022-08-30T15:38:45.006Z,1.95
2022-08-30T15:43:47.300Z,2.05
2022-08-30T15:48:48.005Z,2.03
2022-08-30T15:53:49.333Z,2.08
2022-08-30T15:58:53.010Z,1.73
2022-08-30T16:03:53.942Z,2.30
2022-08-30T16:08:54.604Z,1.90
2022-08-30T16:13:57.559Z,2.10
2022-08-30T16:18:58.559Z,2.10
2022-08-30T16:24:01.761Z,2.42
2022-08-30T16:29:05.319Z,2.20
2022-08-30T16:34:07.894Z,2.38
2022-08-30T16:39:12.695Z,2.08
2022-08-30T16:44:15.643Z,2.50
2022-08-30T16:49:18.491Z,2.60
2022-08-30T16:54:19.860Z,2.22
2022-08-30T16:59:22.162Z,2.20
2022-08-30T17:04:22.853Z,2.25
2022-08-30T17:09:23.457Z,2.08
2022-08-30T17:14:27.603Z,2.42
2022-08-30T17:19:29.302Z,2.70
2022-08-30T17:24:30.360Z,2.30
2022-08-30T17:29:32.640Z,2.28
2022-08-30T17:34:34.666Z,2.10
2022-08-30T17:39:35.561Z,2.70
2022-08-30T17:44:38.053Z,2.33
2022-08-30T17:49:42.965Z,2.60
2022-08-30T17:54:43.577Z,1.83
2022-08-30T17:59:46.122Z,2.05
2022-08-30T18:04:47.142Z,2.90
2022-08-30T18:09:47.774Z,2.33
2022-08-30T18:14:52.900Z,2.92
2022-08-30T18:19:55.064Z,2.40
2022-08-30T18:25:02.228Z,2.17
2022-08-30T18:30:07.004Z,2.40
2022-08-30T18:35:12.450Z,2.13
2022-08-30T18:40:18.764Z,2.00
2022-08-30T18:45:23.051Z,2.35
2022-08-30T18:50:23.698Z,2.22
2022-08-30T18:55:25.016Z,2.13
2022-08-30T19:00:27.177Z,3.55
2022-08-30T19:05:28.316Z,2.17
2022-08-30T19:10:32.907Z,2.75
2022-08-30T19:15:35.671Z,2.92
2022-08-30T19:20:36.345Z,3.20
2022-08-30T19:25:38.095Z,3.45
2022-08-30T19:30:41.309Z,3.03
2022-08-30T19:35:48.937Z,3.28
2022-08-30T19:40:54.710Z,3.10
2022-08-30T19:45:58.231Z,3.58
2022-08-30T19:50:59.013Z,3.50
2022-08-30T19:56:00.248Z,3.65
2022-08-30T20:01:10.562Z,3.67
2022-08-30T20:06:23.070Z,3.97
2022-08-30T20:11:23.731Z,3.70
2022-08-30T20:16:35.476Z,3.50
2022-08-30T20:21:38.784Z,3.53
2022-08-30T20:26:40.159Z,3.38
2022-08-30T20:31:42.090Z,3.58
2022-08-30T20:36:43.129Z,3.92
2022-08-30T20:41:44.490Z,4.13
2022-08-30T20:46:49.445Z,4.38
2022-08-30T20:51:54.302Z,4.18
2022-08-30T20:56:55.290Z,3.53
2022-08-30T21:01:58.169Z,3.95
2022-08-30T21:06:59.365Z,3.50
2022-08-30T21:12:00.013Z,3.30
2022-08-30T21:17:02.173Z,3.45
2022-08-30T21:22:03.758Z,3.30
2022-08-30T21:27:04.832Z,3.13
2022-08-30T21:32:08.299Z,2.47
2022-08-30T21:37:08.894Z,3.28
2022-08-30T21:42:11.970Z,2.95
2022-08-30T21:47:13.931Z,2.95
2022-08-30T21:52:23.878Z,2.65
2022-08-30T21:57:24.817Z,2.95
2022-08-30T22:02:27.074Z,3.30
2022-08-30T22:07:27.889Z,2.40
2022-08-30T22:12:28.674Z,2.53
2022-08-30T22:17:30.623Z,2.70
2022-08-30T22:22:31.262Z,2.88
2022-08-30T22:27:31.936Z,3.00
2022-08-30T22:32:33.863Z,2.80
2022-08-30T22:37:34.475Z,2.55
2022-08-30T22:42:36.186Z,2.60
2022-08-30T22:47:38.111Z,2.53
2022-08-30T22:52:38.962Z,2.80
2022-08-30T22:57:40.745Z,2.65
2022-08-30T23:02:42.858Z,2.75
2022-08-30T23:07:44.156Z,2.95
2022-08-30T23:12:45.217Z,2.97
2022-08-30T23:17:47.163Z,2.60
2022-08-30T23:22:47.603Z,2.95
2022-08-30T23:28:06.079Z,2.92
2022-08-30T23:33:25.737Z,2.92
2022-08-30T23:38:44.144Z,3.05
2022-08-30T23:44:02.092Z,3.20
2022-08-30T23:49:22.291Z,3.30
2022-08-30T23:54:40.617Z,3.63
2022-08-30T23:59:58.904Z,3.92
